createdAt,value
2018-07-31T00:02:04.523Z,19.50
2018-07-31T00:04:33.545Z,19.50
2018-07-31T00:07:02.439Z,19.50
2018-07-31T00:09:31.270Z,19.50
2018-07-31T00:12:00.107Z,19.40
2018-07-31T00:14:28.918Z,19.40
2018-07-31T00:16:57.770Z,19.30
2018-07-31T00:19:26.615Z,19.30
2018-07-31T00:21:55.445Z,19.30
2018-07-31T00:24:24.266Z,19.30
2018-07-31T00:26:53.073Z,19.20
2018-07-31T00:29:21.898Z,19.20
2018-07-31T00:31:50.771Z,19.20
2018-07-31T00:34:19.686Z,19.20
2018-07-31T00:36:48.505Z,19.10
2018-07-31T00:39:17.351Z,19.00
2018-07-31T00:41:46.186Z,19.00
2018-07-31T00:44:15.031Z,19.00
2018-07-31T00:46:43.840Z,19.00
2018-07-31T00:49:12.649Z,19.00
2018-07-31T00:51:41.478Z,19.00
2018-07-31T00:54:10.282Z,18.90
2018-07-31T00:56:39.118Z,18.90
2018-07-31T00:59:07.974Z,18.90
2018-07-31T01:01:36.793Z,18.80
2018-07-31T01:04:05.603Z,18.80
2018-07-31T01:06:39.547Z,18.80
2018-07-31T01:09:09.838Z,18.70
2018-07-31T01:11:38.973Z,18.70
2018-07-31T01:16:37.703Z,18.70
2018-07-31T01:19:06.570Z,18.60
2018-07-31T01:21:35.452Z,18.60
2018-07-31T01:24:04.326Z,18.60
2018-07-31T01:26:33.169Z,18.60
2018-07-31T01:29:02.067Z,18.60
2018-07-31T01:31:30.895Z,18.60
2018-07-31T01:33:59.698Z,18.60
2018-07-31T01:36:28.530Z,18.60
2018-07-31T01:38:57.494Z,18.60
2018-07-31T01:41:26.307Z,18.60
2018-07-31T01:43:55.202Z,18.50
2018-07-31T01:46:24.057Z,18.50
2018-07-31T01:48:52.887Z,18.50
2018-07-31T01:51:21.756Z,18.50
2018-07-31T01:53:50.573Z,18.50
2018-07-31T01:56:19.395Z,18.50
2018-07-31T01:58:48.238Z,18.50
2018-07-31T02:04:19.994Z,18.40
2018-07-31T02:06:48.810Z,18.40
2018-07-31T02:09:17.659Z,18.30
2018-07-31T02:11:46.510Z,18.30
2018-07-31T02:14:15.346Z,18.30
2018-07-31T02:16:44.202Z,18.30
2018-07-31T02:19:12.974Z,18.20
2018-07-31T02:21:41.842Z,18.20
2018-07-31T02:24:10.635Z,18.20
2018-07-31T02:26:39.466Z,18.20
2018-07-31T02:29:08.322Z,18.20
2018-07-31T02:31:37.178Z,18.30
2018-07-31T02:34:06.037Z,18.30
2018-07-31T02:36:35.006Z,18.30
2018-07-31T02:39:04.771Z,18.40
2018-07-31T02:41:33.612Z,18.30
2018-07-31T02:44:02.603Z,18.40
2018-07-31T02:46:31.471Z,18.40
2018-07-31T02:49:00.354Z,18.40
2018-07-31T02:51:29.251Z,18.40
2018-07-31T02:53:58.091Z,18.50
2018-07-31T02:56:26.892Z,18.50
2018-07-31T02:58:55.730Z,18.50
2018-07-31T03:01:24.559Z,18.50
2018-07-31T03:03:53.415Z,18.60
2018-07-31T03:06:22.203Z,18.50
2018-07-31T03:08:51.063Z,18.50
2018-07-31T03:11:19.938Z,18.60
2018-07-31T03:13:48.767Z,18.60
2018-07-31T03:16:17.634Z,18.60
2018-07-31T03:18:46.470Z,18.60
2018-07-31T03:21:15.338Z,18.70
2018-07-31T03:23:44.155Z,18.70
2018-07-31T03:26:13.020Z,18.70
2018-07-31T03:28:41.839Z,18.80
2018-07-31T03:31:10.638Z,18.80
2018-07-31T03:33:39.434Z,18.90
2018-07-31T03:36:08.270Z,18.90
2018-07-31T03:38:37.091Z,18.90
2018-07-31T03:41:06.014Z,19.00
2018-07-31T03:43:34.806Z,19.00
2018-07-31T03:46:03.664Z,19.10
2018-07-31T03:48:32.558Z,19.20
2018-07-31T03:51:01.456Z,19.20
2018-07-31T03:53:30.301Z,19.20
2018-07-31T03:55:59.151Z,19.30
2018-07-31T03:58:27.967Z,19.40
2018-07-31T04:00:56.822Z,19.40
2018-07-31T04:03:25.599Z,19.50
2018-07-31T04:05:54.582Z,19.50
2018-07-31T04:08:23.435Z,19.60
2018-07-31T04:10:52.264Z,19.60
2018-07-31T04:13:21.074Z,19.70
2018-07-31T04:15:49.919Z,19.70
2018-07-31T04:18:18.746Z,19.80
2018-07-31T04:20:47.634Z,19.80
2018-07-31T04:23:16.494Z,19.90
2018-07-31T04:25:45.352Z,19.90
2018-07-31T04:28:14.187Z,20.00
2018-07-31T04:30:43.022Z,20.10
2018-07-31T04:33:11.906Z,20.20
2018-07-31T04:35:40.750Z,20.30
2018-07-31T04:38:09.565Z,20.40
2018-07-31T04:40:38.394Z,20.50
2018-07-31T04:43:07.379Z,20.60
2018-07-31T04:45:36.221Z,20.80
2018-07-31T04:48:05.055Z,21.00
2018-07-31T04:50:33.866Z,21.10
2018-07-31T04:53:02.659Z,21.20
2018-07-31T04:55:31.522Z,21.40
2018-07-31T04:58:00.358Z,21.50
2018-07-31T05:02:57.619Z,21.90
2018-07-31T05:05:26.483Z,22.10
2018-07-31T05:07:55.303Z,22.20
2018-07-31T05:10:24.117Z,22.40
2018-07-31T05:12:52.890Z,22.50
2018-07-31T05:15:21.797Z,22.60
2018-07-31T05:17:50.558Z,22.60
2018-07-31T05:20:19.398Z,22.60
2018-07-31T05:22:48.190Z,22.60
2018-07-31T05:25:17.045Z,22.60
2018-07-31T05:27:45.876Z,22.70
2018-07-31T05:30:14.683Z,22.80
2018-07-31T05:32:43.581Z,22.90
2018-07-31T05:35:12.422Z,23.10
2018-07-31T05:37:41.210Z,23.30
2018-07-31T05:40:10.502Z,23.60
2018-07-31T05:42:39.294Z,23.80
2018-07-31T05:45:08.205Z,23.90
2018-07-31T05:47:37.394Z,24.10
2018-07-31T05:50:07.339Z,24.30
2018-07-31T05:52:36.210Z,24.50
2018-07-31T05:55:05.447Z,24.50
2018-07-31T05:57:34.463Z,24.50
2018-07-31T06:00:03.431Z,24.50
2018-07-31T06:02:32.251Z,24.50
2018-07-31T06:05:01.074Z,24.60
2018-07-31T06:07:29.909Z,24.80
2018-07-31T06:09:58.728Z,24.80
2018-07-31T06:12:27.610Z,25.00
2018-07-31T06:14:56.527Z,25.00
2018-07-31T06:17:25.392Z,25.10
2018-07-31T06:19:54.263Z,25.20
2018-07-31T06:22:23.155Z,25.40
2018-07-31T06:24:52.031Z,25.40
2018-07-31T06:27:20.904Z,25.60
2018-07-31T06:29:49.789Z,25.70
2018-07-31T06:32:32.019Z,25.70
2018-07-31T06:35:00.890Z,25.80
2018-07-31T06:37:29.723Z,25.90
2018-07-31T06:39:58.590Z,26.00
2018-07-31T06:42:27.474Z,26.10
2018-07-31T06:44:56.312Z,26.20
2018-07-31T06:47:25.291Z,26.30
2018-07-31T06:49:54.098Z,26.50
2018-07-31T06:52:22.910Z,26.60
2018-07-31T06:54:51.798Z,26.70
2018-07-31T06:57:20.627Z,26.80
2018-07-31T06:59:49.438Z,27.00
2018-07-31T07:02:18.304Z,27.10
2018-07-31T07:04:47.122Z,27.10
2018-07-31T07:07:15.982Z,27.20
2018-07-31T07:09:44.781Z,27.30
2018-07-31T07:12:13.735Z,27.40
2018-07-31T07:14:42.561Z,27.40
2018-07-31T07:17:11.374Z,27.50
2018-07-31T07:19:40.206Z,27.50
2018-07-31T07:22:09.098Z,27.60
2018-07-31T07:24:37.918Z,27.70
2018-07-31T07:27:06.797Z,27.80
2018-07-31T07:29:35.633Z,27.80
2018-07-31T07:32:04.511Z,27.80
2018-07-31T07:34:33.346Z,27.70
2018-07-31T07:37:02.134Z,27.70
2018-07-31T07:39:30.975Z,27.80
2018-07-31T07:41:59.847Z,27.80
2018-07-31T07:44:28.645Z,27.90
2018-07-31T07:46:57.490Z,27.90
2018-07-31T07:49:26.326Z,27.90
2018-07-31T07:51:55.185Z,27.80
2018-07-31T07:54:24.136Z,27.80
2018-07-31T07:56:52.943Z,27.80
2018-07-31T07:59:21.752Z,27.80
2018-07-31T08:01:50.570Z,27.90
2018-07-31T08:04:19.446Z,28.00
2018-07-31T08:06:48.282Z,28.10
2018-07-31T08:09:17.186Z,28.20
2018-07-31T08:11:45.995Z,28.20
2018-07-31T08:14:14.850Z,28.30
2018-07-31T08:16:43.707Z,28.40
2018-07-31T08:19:12.554Z,28.40
2018-07-31T08:21:41.409Z,28.40
2018-07-31T08:24:10.315Z,28.60
2018-07-31T08:26:39.137Z,28.80
2018-07-31T08:29:08.006Z,29.00
2018-07-31T08:31:36.875Z,29.30
2018-07-31T08:34:05.758Z,29.50
2018-07-31T08:36:34.662Z,29.90
2018-07-31T08:39:04.542Z,29.90
2018-07-31T08:41:33.366Z,30.00
2018-07-31T08:44:02.258Z,30.10
2018-07-31T08:46:31.090Z,30.00
2018-07-31T08:48:59.918Z,30.00
2018-07-31T08:51:28.930Z,30.00
2018-07-31T08:53:57.823Z,29.90
2018-07-31T08:56:26.653Z,29.90
2018-07-31T08:58:55.446Z,29.90
2018-07-31T09:01:24.293Z,30.00
2018-07-31T09:03:53.134Z,30.20
2018-07-31T09:06:22.230Z,30.40
2018-07-31T09:08:51.162Z,30.40
2018-07-31T09:11:20.007Z,30.50
2018-07-31T09:13:48.883Z,30.50
2018-07-31T09:16:17.678Z,30.60
2018-07-31T09:18:46.510Z,30.60
2018-07-31T09:21:15.376Z,30.60
2018-07-31T09:23:44.214Z,30.50
2018-07-31T09:26:13.094Z,30.60
2018-07-31T09:28:41.918Z,30.60
2018-07-31T09:31:12.638Z,30.70
2018-07-31T09:33:41.868Z,30.60
2018-07-31T09:36:10.784Z,30.60
2018-07-31T09:38:39.642Z,30.50
2018-07-31T09:41:08.482Z,30.60
2018-07-31T09:43:37.315Z,30.70
2018-07-31T09:46:06.211Z,30.80
2018-07-31T09:48:35.083Z,30.90
2018-07-31T09:51:03.910Z,31.20
2018-07-31T09:53:32.734Z,31.40
2018-07-31T09:56:01.559Z,31.50
2018-07-31T09:58:30.798Z,31.50
2018-07-31T10:01:04.670Z,31.30
2018-07-31T10:03:33.514Z,31.40
2018-07-31T10:06:02.411Z,31.40
2018-07-31T10:08:31.254Z,31.40
2018-07-31T10:11:00.106Z,31.50
2018-07-31T10:13:28.959Z,31.60
2018-07-31T10:15:57.825Z,31.60
2018-07-31T10:18:26.658Z,31.60
2018-07-31T10:20:55.498Z,31.60
2018-07-31T10:23:24.530Z,31.60
2018-07-31T10:25:53.414Z,31.70
2018-07-31T10:28:22.246Z,31.80
2018-07-31T10:30:51.193Z,31.80
2018-07-31T10:33:19.909Z,31.80
2018-07-31T10:35:48.758Z,31.80
2018-07-31T10:38:17.570Z,31.90
2018-07-31T10:40:46.382Z,32.00
2018-07-31T10:43:15.199Z,32.00
2018-07-31T10:45:44.032Z,32.20
2018-07-31T10:48:12.915Z,32.20
2018-07-31T10:50:41.788Z,32.40
2018-07-31T10:53:10.602Z,32.30
2018-07-31T10:55:39.409Z,32.30
2018-07-31T10:58:08.340Z,32.20
2018-07-31T11:00:37.150Z,32.40
2018-07-31T11:03:06.169Z,32.50
2018-07-31T11:05:35.016Z,32.60
2018-07-31T11:08:03.952Z,32.50
2018-07-31T11:10:32.752Z,32.60
2018-07-31T11:13:01.583Z,32.60
2018-07-31T11:15:30.430Z,32.50
2018-07-31T11:17:59.255Z,32.60
2018-07-31T11:20:28.166Z,32.60
2018-07-31T11:22:56.975Z,32.60
2018-07-31T11:25:25.876Z,32.70
2018-07-31T11:27:54.727Z,32.50
2018-07-31T11:30:23.565Z,32.40
2018-07-31T11:32:52.452Z,32.60
2018-07-31T11:35:21.263Z,32.60
2018-07-31T11:37:50.143Z,32.60
2018-07-31T11:40:19.037Z,32.70
2018-07-31T11:42:48.002Z,32.80
2018-07-31T11:45:16.877Z,32.90
2018-07-31T11:47:45.840Z,33.10
2018-07-31T11:50:14.700Z,33.20
2018-07-31T11:52:43.692Z,33.30
2018-07-31T11:55:12.539Z,33.40
2018-07-31T11:57:41.398Z,33.70
2018-07-31T12:00:12.091Z,33.90
2018-07-31T12:02:41.022Z,33.80
2018-07-31T12:05:09.908Z,33.60
2018-07-31T12:07:38.783Z,33.60
2018-07-31T12:10:07.670Z,33.50
2018-07-31T12:12:36.526Z,33.60
2018-07-31T12:15:05.692Z,33.50
2018-07-31T12:17:34.496Z,33.60
2018-07-31T12:20:03.326Z,33.60
2018-07-31T12:22:32.147Z,33.60
2018-07-31T12:25:00.966Z,33.40
2018-07-31T12:27:29.858Z,33.10
2018-07-31T12:29:58.680Z,32.90
2018-07-31T12:32:27.485Z,32.90
2018-07-31T12:34:56.326Z,32.70
2018-07-31T12:37:25.166Z,32.90
2018-07-31T12:39:54.055Z,33.20
2018-07-31T12:42:22.894Z,33.40
2018-07-31T12:44:51.750Z,33.60
2018-07-31T12:47:20.535Z,33.90
2018-07-31T12:49:49.391Z,34.20
2018-07-31T12:52:18.248Z,34.60
2018-07-31T12:54:47.107Z,34.60
2018-07-31T12:57:15.956Z,34.60
2018-07-31T12:59:44.767Z,35.10
2018-07-31T13:02:13.640Z,35.30
2018-07-31T13:04:42.450Z,35.60
2018-07-31T13:07:11.303Z,35.90
2018-07-31T13:09:40.106Z,36.00
2018-07-31T13:12:08.980Z,36.60
2018-07-31T13:14:37.862Z,36.90
2018-07-31T13:17:06.694Z,38.60
2018-07-31T13:19:35.567Z,39.40
2018-07-31T13:22:04.473Z,39.50
2018-07-31T13:24:33.334Z,40.10
2018-07-31T13:27:02.159Z,40.80
2018-07-31T13:29:31.009Z,41.60
2018-07-31T13:31:59.838Z,42.10
2018-07-31T13:34:28.683Z,43.00
2018-07-31T13:36:57.550Z,43.20
2018-07-31T13:39:26.350Z,42.60
2018-07-31T13:41:55.194Z,43.10
2018-07-31T13:44:24.074Z,43.20
2018-07-31T13:46:52.914Z,43.30
2018-07-31T13:49:21.750Z,43.50
2018-07-31T13:51:50.590Z,42.60
2018-07-31T13:54:19.430Z,43.40
2018-07-31T13:56:48.319Z,43.30
2018-07-31T13:59:17.166Z,43.80
2018-07-31T14:01:45.960Z,43.40
2018-07-31T14:04:15.093Z,43.40
2018-07-31T14:06:43.957Z,43.30
2018-07-31T14:09:12.779Z,43.50
2018-07-31T14:11:41.603Z,43.30
2018-07-31T14:14:10.493Z,43.10
2018-07-31T14:16:39.294Z,43.20
2018-07-31T14:19:08.131Z,43.20
2018-07-31T14:21:37.240Z,43.40
2018-07-31T14:24:06.067Z,41.70
2018-07-31T14:26:34.943Z,42.40
2018-07-31T14:29:03.957Z,42.50
2018-07-31T14:31:32.753Z,42.10
2018-07-31T14:34:01.631Z,42.00
2018-07-31T14:36:30.499Z,41.50
2018-07-31T14:38:59.309Z,42.00
2018-07-31T14:41:28.123Z,41.30
2018-07-31T14:43:57.014Z,40.00
2018-07-31T14:46:25.848Z,39.90
2018-07-31T14:48:54.686Z,39.80
2018-07-31T14:51:23.534Z,39.60
2018-07-31T14:53:52.335Z,39.80
2018-07-31T14:56:21.131Z,40.00
2018-07-31T14:58:49.962Z,39.70
2018-07-31T15:01:18.896Z,39.60
2018-07-31T15:03:47.762Z,39.00
2018-07-31T15:06:16.538Z,38.20
2018-07-31T15:08:45.367Z,37.50
2018-07-31T15:11:14.280Z,37.20
2018-07-31T15:13:43.039Z,37.10
2018-07-31T15:16:11.863Z,37.00
2018-07-31T15:18:40.775Z,36.80
2018-07-31T15:21:09.636Z,36.30
2018-07-31T15:23:38.615Z,35.70
2018-07-31T15:26:07.502Z,35.20
2018-07-31T15:28:36.329Z,34.40
2018-07-31T15:31:05.177Z,34.20
2018-07-31T15:33:33.998Z,33.80
2018-07-31T15:36:02.834Z,33.50
2018-07-31T15:38:31.626Z,33.10
2018-07-31T15:41:00.492Z,32.80
2018-07-31T15:43:29.290Z,32.70
2018-07-31T15:45:58.146Z,32.40
2018-07-31T15:48:26.946Z,32.00
2018-07-31T15:50:55.794Z,32.20
2018-07-31T15:53:24.615Z,32.00
2018-07-31T15:55:53.438Z,32.00
2018-07-31T15:58:22.342Z,32.00
2018-07-31T16:00:51.158Z,32.00
2018-07-31T16:03:19.986Z,32.00
2018-07-31T16:05:48.842Z,31.80
2018-07-31T16:08:17.666Z,31.50
2018-07-31T16:10:46.595Z,31.20
2018-07-31T16:13:15.418Z,31.00
2018-07-31T16:15:44.400Z,30.70
2018-07-31T16:18:13.230Z,30.40
2018-07-31T16:20:42.162Z,30.20
2018-07-31T16:23:11.002Z,30.00
2018-07-31T16:25:39.866Z,29.60
2018-07-31T16:28:08.690Z,29.50
2018-07-31T16:30:37.545Z,29.20
2018-07-31T16:33:06.419Z,29.20
2018-07-31T16:35:35.287Z,28.90
2018-07-31T16:38:04.160Z,28.80
2018-07-31T16:40:33.028Z,28.80
2018-07-31T16:43:01.906Z,28.70
2018-07-31T16:45:30.744Z,28.70
2018-07-31T16:47:59.578Z,28.60
2018-07-31T16:50:28.454Z,28.50
2018-07-31T16:52:57.290Z,28.40
2018-07-31T16:55:26.111Z,28.30
2018-07-31T16:57:54.948Z,28.30
2018-07-31T17:00:23.775Z,28.30
2018-07-31T17:02:52.586Z,28.30
2018-07-31T17:05:21.431Z,28.40
2018-07-31T17:07:50.309Z,28.40
2018-07-31T17:10:19.143Z,28.50
2018-07-31T17:12:47.974Z,28.70
2018-07-31T17:15:16.814Z,28.80
2018-07-31T17:17:45.742Z,28.90
2018-07-31T17:20:14.564Z,29.00
2018-07-31T17:22:43.446Z,29.00
2018-07-31T17:25:12.254Z,28.90
2018-07-31T17:27:41.102Z,28.90
2018-07-31T17:30:10.040Z,28.90
2018-07-31T17:32:38.907Z,28.80
2018-07-31T17:35:07.846Z,28.70
2018-07-31T17:37:36.713Z,28.70
2018-07-31T17:40:05.731Z,28.60
2018-07-31T17:42:34.570Z,28.60
2018-07-31T17:45:03.550Z,28.50
2018-07-31T17:47:32.370Z,28.30
2018-07-31T17:50:01.191Z,28.20
2018-07-31T17:52:30.074Z,28.10
2018-07-31T17:54:58.911Z,28.00
2018-07-31T17:57:27.763Z,27.90
2018-07-31T17:59:57.326Z,27.90
2018-07-31T18:02:26.178Z,27.90
2018-07-31T18:04:55.002Z,27.70
2018-07-31T18:07:23.905Z,27.60
2018-07-31T18:09:52.721Z,27.50
2018-07-31T18:12:21.602Z,27.50
2018-07-31T18:14:50.541Z,27.50
2018-07-31T18:17:19.343Z,27.40
2018-07-31T18:19:48.343Z,27.40
2018-07-31T18:22:17.198Z,27.30
2018-07-31T18:24:46.007Z,27.30
2018-07-31T18:27:14.871Z,27.10
2018-07-31T18:29:43.731Z,27.00
2018-07-31T18:32:12.587Z,27.00
2018-07-31T18:34:41.395Z,26.90
2018-07-31T18:37:10.219Z,26.90
2018-07-31T18:39:39.038Z,26.90
2018-07-31T18:42:07.898Z,26.90
2018-07-31T18:44:36.702Z,26.80
2018-07-31T18:47:05.617Z,26.80
2018-07-31T18:49:34.448Z,26.80
2018-07-31T18:52:03.275Z,26.80
2018-07-31T18:54:32.138Z,26.70
2018-07-31T18:57:00.952Z,26.70
2018-07-31T18:59:29.839Z,26.60
2018-07-31T19:01:58.725Z,26.60
2018-07-31T19:04:27.590Z,26.40
2018-07-31T19:06:56.441Z,26.30
2018-07-31T19:09:25.280Z,26.20
2018-07-31T19:11:54.078Z,26.30
2018-07-31T19:14:22.894Z,26.30
2018-07-31T19:16:51.834Z,26.30
2018-07-31T19:19:20.750Z,26.30
2018-07-31T19:21:49.727Z,26.20
2018-07-31T19:24:18.590Z,25.90
2018-07-31T19:29:15.858Z,25.60
2018-07-31T19:31:44.694Z,25.00
2018-07-31T19:34:13.554Z,24.90
2018-07-31T19:36:42.523Z,24.70
2018-07-31T19:39:11.422Z,24.60
2018-07-31T19:41:40.336Z,24.50
2018-07-31T19:44:09.236Z,24.20
2018-07-31T19:46:38.092Z,24.20
2018-07-31T19:49:07.074Z,24.10
2018-07-31T19:51:35.942Z,24.10
2018-07-31T19:54:04.860Z,24.00
2018-07-31T19:56:33.717Z,23.90
2018-07-31T19:59:02.602Z,23.70
2018-07-31T20:01:31.496Z,23.70
2018-07-31T20:04:00.376Z,23.60
2018-07-31T20:06:29.242Z,23.50
2018-07-31T20:08:58.088Z,23.30
2018-07-31T20:11:27.024Z,23.30
2018-07-31T20:13:55.847Z,23.30
2018-07-31T20:16:24.737Z,23.20
2018-07-31T20:18:53.663Z,23.10
2018-07-31T20:21:22.518Z,22.80
2018-07-31T20:23:51.414Z,22.80
2018-07-31T20:26:20.296Z,22.70
2018-07-31T20:28:49.153Z,22.60
2018-07-31T20:31:18.072Z,22.50
2018-07-31T20:33:46.917Z,22.40
2018-07-31T20:36:15.748Z,22.20
2018-07-31T20:38:44.675Z,22.10
2018-07-31T20:41:13.508Z,22.00
2018-07-31T20:43:42.402Z,21.90
2018-07-31T20:46:11.263Z,21.80
2018-07-31T20:48:40.156Z,21.80
2018-07-31T20:51:09.013Z,21.80
2018-07-31T20:53:37.834Z,21.70
2018-07-31T20:56:08.754Z,21.60
2018-07-31T20:58:37.638Z,21.50
2018-07-31T21:01:06.575Z,21.50
2018-07-31T21:03:35.431Z,21.40
2018-07-31T21:06:04.410Z,21.40
2018-07-31T21:08:33.263Z,21.40
2018-07-31T21:11:02.103Z,21.30
2018-07-31T21:13:30.962Z,21.30
2018-07-31T21:15:59.785Z,21.20
2018-07-31T21:18:28.690Z,21.20
2018-07-31T21:20:57.666Z,21.10
2018-07-31T21:23:26.743Z,20.80
2018-07-31T21:25:55.726Z,20.80
2018-07-31T21:28:25.676Z,20.80
2018-07-31T21:30:54.546Z,20.80
2018-07-31T21:33:23.626Z,20.80
2018-07-31T21:35:52.491Z,20.70
2018-07-31T21:38:21.363Z,20.70
2018-07-31T21:40:50.214Z,20.70
2018-07-31T21:43:21.058Z,20.70
2018-07-31T21:45:49.922Z,20.60
2018-07-31T21:48:18.791Z,20.70
2018-07-31T21:50:47.698Z,20.60
2018-07-31T21:53:16.565Z,20.60
2018-07-31T21:55:45.507Z,20.60
2018-07-31T21:58:14.680Z,20.60
2018-07-31T22:00:48.663Z,20.50
2018-07-31T22:03:17.475Z,20.40
2018-07-31T22:05:46.319Z,20.30
2018-07-31T22:08:15.152Z,20.30
2018-07-31T22:10:43.962Z,20.30
2018-07-31T22:13:12.783Z,20.30
2018-07-31T22:15:41.723Z,20.20
2018-07-31T22:18:10.667Z,20.20
2018-07-31T22:20:39.474Z,20.10
2018-07-31T22:23:08.482Z,20.10
2018-07-31T22:25:37.334Z,20.10
2018-07-31T22:28:06.186Z,20.10
2018-07-31T22:30:35.055Z,20.10
2018-07-31T22:33:03.897Z,20.00
2018-07-31T22:35:32.750Z,20.00
2018-07-31T22:38:01.681Z,20.00
2018-07-31T22:40:30.519Z,19.80
2018-07-31T22:42:59.422Z,19.70
2018-07-31T22:45:28.327Z,19.70
2018-07-31T22:47:57.195Z,19.70
2018-07-31T22:50:26.110Z,19.70
2018-07-31T22:52:54.967Z,19.80
2018-07-31T22:55:23.799Z,19.80
2018-07-31T22:57:52.656Z,19.70
2018-07-31T23:00:21.470Z,19.70
2018-07-31T23:02:50.286Z,19.70
2018-07-31T23:05:19.158Z,19.70
2018-07-31T23:07:48.015Z,19.60
2018-07-31T23:10:19.629Z,19.50
2018-07-31T23:12:49.298Z,19.50
2018-07-31T23:15:18.126Z,19.50
2018-07-31T23:17:46.974Z,19.60
2018-07-31T23:20:15.817Z,19.60
2018-07-31T23:22:46.150Z,19.60
2018-07-31T23:25:15.129Z,19.60
2018-07-31T23:27:44.011Z,19.70
2018-07-31T23:30:12.932Z,19.50
2018-07-31T23:32:42.182Z,19.60
2018-07-31T23:35:11.071Z,19.60
2018-07-31T23:37:39.916Z,19.60
2018-07-31T23:40:09.003Z,19.60
2018-07-31T23:42:37.806Z,19.60
2018-07-31T23:45:07.494Z,19.60
2018-07-31T23:47:36.322Z,19.60
2018-07-31T23:50:05.466Z,19.50
2018-07-31T23:52:34.371Z,19.50
2018-07-31T23:55:03.251Z,19.50
2018-07-31T23:57:32.118Z,19.40
